createdAt,value
2018-11-02T08:47:08.506Z,10.70
2018-11-02T08:49:36.677Z,10.60
2018-11-02T08:52:05.184Z,10.70
2018-11-02T08:54:33.345Z,10.70
2018-11-02T08:57:01.517Z,10.70
2018-11-02T08:59:29.836Z,10.70
2018-11-02T09:01:57.933Z,10.60
2018-11-02T09:04:26.207Z,10.60
2018-11-02T09:06:55.338Z,10.60
2018-11-02T09:09:23.522Z,10.60
2018-11-02T09:11:51.723Z,10.60
2018-11-02T09:14:20.210Z,10.50
2018-11-02T09:16:48.412Z,10.60
2018-11-02T09:19:16.641Z,10.70
2018-11-02T09:21:44.808Z,10.90
2018-11-02T09:24:13.060Z,11.10
2018-11-02T09:26:41.245Z,11.40
2018-11-02T09:29:09.420Z,11.50
2018-11-02T09:31:37.621Z,11.60
2018-11-02T09:34:06.065Z,11.50
2018-11-02T09:36:34.324Z,11.50
2018-11-02T09:39:02.555Z,11.40
2018-11-02T09:41:30.765Z,11.60
2018-11-02T09:43:59.006Z,11.50
2018-11-02T09:46:27.185Z,11.40
2018-11-02T09:48:55.356Z,11.60
2018-11-02T09:51:23.623Z,11.50
2018-11-02T09:53:51.809Z,11.40
2018-11-02T09:56:20.006Z,11.50
2018-11-02T09:58:48.257Z,11.30
2018-11-02T10:01:16.436Z,11.20
2018-11-02T10:03:44.638Z,11.30
2018-11-02T10:06:12.882Z,11.50
2018-11-02T10:08:41.310Z,11.50
2018-11-02T10:11:09.719Z,11.40
2018-11-02T10:13:38.025Z,11.50
2018-11-02T10:16:06.793Z,11.50
2018-11-02T10:18:35.094Z,11.60
2018-11-02T10:21:03.282Z,11.50
2018-11-02T10:23:31.693Z,11.70
2018-11-02T10:25:59.916Z,11.80
2018-11-02T10:28:28.110Z,11.90
2018-11-02T10:30:56.341Z,11.80
2018-11-02T10:33:24.521Z,11.80
2018-11-02T10:35:53.322Z,11.40
2018-11-02T10:38:21.494Z,11.40
2018-11-02T10:40:52.666Z,11.40
2018-11-02T10:43:21.682Z,11.30
2018-11-02T10:45:54.981Z,11.30
2018-11-02T10:48:24.286Z,11.30
2018-11-02T10:50:52.524Z,11.40
2018-11-02T10:53:20.809Z,11.50
2018-11-02T10:55:49.122Z,11.40
2018-11-02T10:58:17.361Z,11.40
2018-11-02T11:00:50.991Z,11.30
2018-11-02T11:03:19.141Z,11.30
2018-11-02T11:05:47.444Z,11.30
2018-11-02T11:08:15.785Z,11.50
2018-11-02T11:10:44.058Z,11.50
2018-11-02T11:13:13.002Z,11.60
2018-11-02T11:15:40.901Z,11.30
2018-11-02T11:18:09.158Z,11.30
2018-11-02T11:20:37.475Z,11.30
2018-11-02T11:23:05.982Z,11.30
2018-11-02T11:25:40.828Z,11.40
2018-11-02T11:28:09.699Z,11.20
2018-11-02T11:30:38.034Z,11.40
2018-11-02T11:33:06.401Z,11.40
2018-11-02T11:35:34.800Z,11.30
2018-11-02T11:38:03.050Z,11.40
2018-11-02T11:40:31.338Z,11.40
2018-11-02T11:42:59.752Z,11.50
2018-11-02T11:45:28.085Z,11.40
2018-11-02T11:47:56.444Z,11.30
2018-11-02T11:50:24.885Z,11.40
2018-11-02T11:52:54.023Z,11.40
2018-11-02T11:55:22.329Z,11.50
2018-11-02T11:57:50.630Z,11.50
2018-11-02T12:00:21.037Z,11.70
2018-11-02T12:02:50.066Z,11.60
2018-11-02T12:05:20.734Z,11.60
2018-11-02T12:07:49.067Z,11.70
2018-11-02T12:10:20.999Z,11.60
2018-11-02T12:12:49.209Z,11.50
2018-11-02T12:15:19.754Z,11.40
2018-11-02T12:17:48.594Z,11.50
2018-11-02T12:20:23.305Z,11.50
2018-11-02T12:22:53.194Z,11.50
2018-11-02T12:25:21.697Z,11.50
2018-11-02T12:27:50.180Z,11.60
2018-11-02T12:30:19.121Z,11.50
2018-11-02T12:32:47.381Z,11.50
2018-11-02T12:35:17.070Z,11.50
2018-11-02T12:37:45.438Z,11.50
2018-11-02T12:40:15.928Z,11.50
2018-11-02T12:42:45.381Z,11.60
2018-11-02T12:45:15.364Z,11.40
2018-11-02T12:47:44.524Z,11.40
2018-11-02T12:50:15.474Z,11.30
2018-11-02T12:52:44.486Z,11.30
2018-11-02T12:55:13.363Z,11.10
2018-11-02T12:57:46.258Z,11.20
2018-11-02T13:00:16.538Z,11.20
2018-11-02T13:02:45.794Z,11.10
2018-11-02T13:05:14.347Z,11.10
2018-11-02T13:07:42.733Z,11.10
2018-11-02T13:10:12.428Z,11.30
2018-11-02T13:12:41.131Z,11.50
2018-11-02T13:15:12.157Z,11.30
2018-11-02T13:17:41.358Z,11.20
2018-11-02T13:20:10.458Z,11.30
2018-11-02T13:22:40.076Z,11.30
2018-11-02T13:25:10.506Z,11.20
2018-11-02T13:27:39.683Z,11.10
2018-11-02T13:30:08.681Z,11.00
2018-11-02T13:32:37.110Z,11.00
2018-11-02T13:35:06.527Z,11.00
2018-11-02T13:37:35.181Z,11.00
2018-11-02T13:40:04.493Z,11.00
2018-11-02T13:42:32.808Z,11.00
2018-11-02T13:45:01.214Z,11.20
2018-11-02T13:47:29.821Z,11.20
2018-11-02T13:49:58.435Z,11.20
2018-11-02T13:52:27.120Z,11.10
2018-11-02T13:54:55.390Z,11.20
2018-11-02T13:57:24.427Z,11.30
2018-11-02T13:59:52.912Z,11.10
2018-11-02T14:02:21.533Z,10.90
2018-11-02T14:04:49.884Z,10.90
2018-11-02T14:07:18.248Z,11.00
2018-11-02T14:09:46.480Z,11.00
2018-11-02T14:12:14.911Z,10.90
2018-11-02T14:14:43.268Z,10.80
2018-11-02T14:17:11.646Z,10.90
2018-11-02T14:19:39.912Z,10.80
2018-11-02T14:22:08.230Z,10.90
2018-11-02T14:24:36.603Z,10.60
2018-11-02T14:27:04.963Z,10.60
2018-11-02T14:29:33.461Z,10.40
2018-11-02T14:32:01.637Z,10.40
2018-11-02T14:34:29.950Z,10.50
2018-11-02T14:36:58.241Z,10.40
2018-11-02T14:39:26.615Z,10.40
2018-11-02T14:41:55.137Z,10.30
2018-11-02T14:44:23.397Z,10.20
2018-11-02T14:46:51.681Z,10.10
2018-11-02T14:49:19.946Z,10.00
2018-11-02T14:51:48.231Z,10.10
2018-11-02T14:54:16.552Z,10.00
2018-11-02T14:56:44.746Z,10.00
2018-11-02T14:59:13.093Z,9.90
2018-11-02T15:01:41.306Z,9.90
2018-11-02T15:04:09.558Z,9.80
2018-11-02T15:06:37.750Z,9.80
2018-11-02T15:09:10.025Z,9.70
2018-11-02T15:11:38.303Z,9.70
2018-11-02T15:14:06.654Z,9.60
2018-11-02T15:16:34.873Z,9.60
2018-11-02T15:19:03.122Z,9.60
2018-11-02T15:21:31.458Z,9.40
2018-11-02T15:23:59.730Z,9.40
2018-11-02T15:26:27.957Z,9.60
2018-11-02T15:28:56.259Z,9.70
2018-11-02T15:31:24.556Z,9.60
2018-11-02T15:33:52.790Z,9.70
2018-11-02T15:36:21.062Z,9.60
2018-11-02T15:38:49.382Z,9.60
2018-11-02T15:41:18.167Z,9.40
2018-11-02T15:43:46.494Z,9.40
2018-11-02T15:46:14.788Z,9.30
2018-11-02T15:48:43.002Z,9.10
2018-11-02T15:51:11.271Z,9.20
2018-11-02T15:53:39.490Z,9.00
2018-11-02T15:56:07.877Z,9.00
2018-11-02T15:58:36.072Z,9.10
2018-11-02T16:01:04.387Z,9.00
2018-11-02T16:03:32.701Z,9.00
2018-11-02T16:06:00.870Z,8.90
2018-11-02T16:08:29.358Z,8.90
2018-11-02T16:10:57.887Z,8.90
2018-11-02T16:13:26.138Z,8.80
2018-11-02T16:15:54.402Z,8.80
2018-11-02T16:18:22.714Z,8.70
2018-11-02T16:20:50.962Z,8.60
2018-11-02T16:23:19.203Z,8.60
2018-11-02T16:25:47.557Z,8.60
2018-11-02T16:28:15.921Z,8.60
2018-11-02T16:30:44.199Z,8.50
2018-11-02T16:33:12.510Z,8.50
2018-11-02T16:35:40.765Z,8.50
2018-11-02T16:38:09.029Z,8.40
2018-11-02T16:40:37.337Z,8.40
2018-11-02T16:43:05.605Z,8.40
2018-11-02T16:45:33.964Z,8.40
2018-11-02T16:48:02.306Z,8.30
2018-11-02T16:50:30.691Z,8.30
2018-11-02T16:52:58.965Z,8.20
2018-11-02T16:55:27.378Z,8.50
2018-11-02T16:57:55.945Z,8.30
2018-11-02T17:00:24.396Z,8.20
2018-11-02T17:02:52.706Z,8.20
2018-11-02T17:05:21.054Z,8.30
2018-11-02T17:07:49.294Z,8.10
2018-11-02T17:10:17.582Z,8.20
2018-11-02T17:12:46.042Z,8.30
2018-11-02T17:15:14.752Z,8.20
2018-11-02T17:17:44.071Z,8.20
2018-11-02T17:20:13.811Z,8.10
2018-11-02T17:22:42.110Z,7.90
2018-11-02T17:25:11.214Z,7.80
2018-11-02T17:27:39.937Z,7.70
2018-11-02T17:30:10.946Z,7.90
2018-11-02T17:32:39.443Z,7.90
2018-11-02T17:35:08.161Z,8.20
2018-11-02T17:37:37.133Z,8.20
2018-11-02T17:40:06.775Z,8.30
2018-11-02T17:42:35.106Z,8.40
2018-11-02T17:45:03.343Z,8.30
2018-11-02T17:47:31.791Z,8.30
2018-11-02T17:50:00.015Z,8.40
2018-11-02T17:52:28.382Z,8.40
2018-11-02T17:54:56.746Z,8.30
2018-11-02T17:57:25.143Z,8.40
2018-11-02T17:59:53.456Z,8.30
2018-11-02T18:02:21.887Z,8.20
2018-11-02T18:04:50.775Z,7.90
2018-11-02T18:07:19.161Z,7.60
2018-11-02T18:09:47.626Z,7.40
2018-11-02T18:12:16.174Z,7.30
2018-11-02T18:14:44.365Z,7.20
2018-11-02T18:17:12.751Z,7.00
2018-11-02T18:19:41.094Z,7.10
2018-11-02T18:22:09.411Z,7.00
2018-11-02T18:24:37.707Z,7.00
2018-11-02T18:27:06.181Z,6.90
2018-11-02T18:29:34.862Z,6.90
2018-11-02T18:32:03.298Z,6.90
2018-11-02T18:34:31.963Z,7.10
2018-11-02T18:37:00.428Z,7.10
2018-11-02T18:39:28.827Z,7.00
2018-11-02T18:41:57.411Z,6.90
2018-11-02T18:44:25.869Z,6.80
2018-11-02T18:46:54.497Z,7.30
2018-11-02T18:49:22.906Z,7.50
2018-11-02T18:51:51.338Z,7.50
2018-11-02T18:54:19.725Z,7.60
2018-11-02T18:56:48.184Z,7.40
2018-11-02T18:59:16.566Z,7.30
2018-11-02T19:01:44.971Z,7.20
2018-11-02T19:04:13.599Z,7.20
2018-11-02T19:06:42.287Z,7.10
2018-11-02T19:09:11.124Z,7.00
2018-11-02T19:11:39.916Z,7.00
2018-11-02T19:14:08.515Z,7.00
2018-11-02T19:16:37.131Z,7.00
2018-11-02T19:19:05.920Z,7.10
2018-11-02T19:21:34.366Z,7.90
2018-11-02T19:24:02.563Z,7.20
2018-11-02T19:26:30.948Z,7.20
2018-11-02T19:28:59.826Z,7.10
2018-11-02T19:31:28.140Z,7.00
2018-11-02T19:33:56.513Z,7.00
2018-11-02T19:36:25.114Z,6.90
2018-11-02T19:38:53.382Z,7.00
2018-11-02T19:41:21.590Z,6.80
2018-11-02T19:43:50.326Z,6.60
2018-11-02T19:46:18.686Z,6.60
2018-11-02T19:48:47.064Z,6.40
2018-11-02T19:51:15.389Z,6.40
2018-11-02T19:53:43.821Z,6.20
2018-11-02T19:56:12.033Z,6.20
2018-11-02T19:58:40.343Z,6.10
2018-11-02T20:01:08.675Z,6.00
2018-11-02T20:03:36.941Z,5.70
2018-11-02T20:06:05.338Z,5.60
2018-11-02T20:08:33.646Z,5.50
2018-11-02T20:11:01.905Z,5.40
2018-11-02T20:13:30.210Z,5.30
2018-11-02T20:15:58.477Z,5.30
2018-11-02T20:18:26.735Z,5.30
2018-11-02T20:20:55.018Z,5.30
2018-11-02T20:23:23.323Z,5.20
2018-11-02T20:25:51.563Z,5.20
2018-11-02T20:28:20.098Z,5.20
2018-11-02T20:30:48.431Z,5.20
2018-11-02T20:33:16.709Z,5.20
2018-11-02T20:35:44.978Z,5.50
2018-11-02T20:38:13.291Z,5.30
2018-11-02T20:40:41.479Z,5.20
2018-11-02T20:43:09.746Z,5.10
2018-11-02T20:45:37.993Z,5.00
2018-11-02T20:48:06.502Z,5.00
2018-11-02T20:50:34.750Z,5.00
2018-11-02T20:53:03.019Z,5.00
2018-11-02T20:55:31.254Z,4.90
2018-11-02T20:57:59.478Z,4.80
2018-11-02T21:00:27.725Z,4.70
2018-11-02T21:02:56.008Z,4.60
2018-11-02T21:05:24.323Z,4.40
2018-11-02T21:07:52.903Z,4.40
2018-11-02T21:10:21.921Z,4.30
2018-11-02T21:12:50.302Z,4.30
2018-11-02T21:15:24.010Z,4.30
2018-11-02T21:17:52.689Z,4.20
2018-11-02T21:20:23.164Z,4.10
2018-11-02T21:22:51.607Z,4.00
2018-11-02T21:25:19.964Z,4.00
2018-11-02T21:27:48.631Z,3.90
2018-11-02T21:30:18.318Z,3.80
2018-11-02T21:32:47.459Z,3.80
2018-11-02T21:35:16.452Z,3.90
2018-11-02T21:37:44.901Z,3.90
2018-11-02T21:40:14.397Z,3.70
2018-11-02T21:42:42.925Z,3.60
2018-11-02T21:45:12.198Z,3.60
2018-11-02T21:47:40.489Z,3.60
2018-11-02T21:50:09.343Z,3.50
2018-11-02T21:52:37.586Z,3.50
2018-11-02T21:55:06.058Z,3.50
2018-11-02T21:57:34.353Z,3.50
2018-11-02T22:00:02.925Z,3.50
2018-11-02T22:02:31.374Z,3.50
2018-11-02T22:04:59.698Z,3.50
2018-11-02T22:07:27.919Z,3.30
2018-11-02T22:09:56.170Z,3.40
2018-11-02T22:12:24.450Z,3.20
2018-11-02T22:14:52.729Z,3.20
2018-11-02T22:17:20.987Z,3.20
2018-11-02T22:19:49.318Z,3.30
2018-11-02T22:22:17.659Z,3.30
2018-11-02T22:24:45.974Z,3.30
2018-11-02T22:27:14.395Z,3.40
2018-11-02T22:29:42.686Z,3.20
2018-11-02T22:32:11.061Z,3.20
2018-11-02T22:34:39.385Z,3.20
2018-11-02T22:37:07.617Z,3.20
2018-11-02T22:39:35.881Z,3.20
2018-11-02T22:42:04.259Z,3.10
2018-11-02T22:44:32.479Z,3.30
2018-11-02T22:47:00.739Z,3.20
2018-11-02T22:49:28.986Z,3.20
2018-11-02T22:51:57.475Z,3.20
2018-11-02T22:54:25.745Z,3.20
2018-11-02T22:56:54.125Z,5.30
2018-11-02T22:59:22.509Z,3.20
